createdAt,value
2022-12-19T00:01:59.141Z,28.33
2022-12-19T00:04:27.228Z,28.70
2022-12-19T00:06:58.158Z,27.93
2022-12-19T00:09:26.733Z,28.63
2022-12-19T00:11:54.986Z,27.70
2022-12-19T00:14:24.348Z,31.80
2022-12-19T00:16:52.326Z,28.13
2022-12-19T00:19:20.322Z,29.80
2022-12-19T00:21:48.221Z,30.87
2022-12-19T00:24:21.271Z,29.30
2022-12-19T00:26:50.902Z,29.67
2022-12-19T00:29:18.812Z,28.37
2022-12-19T00:31:48.167Z,32.30
2022-12-19T00:34:16.289Z,29.80
2022-12-19T00:36:44.338Z,30.73
2022-12-19T00:39:12.932Z,31.20
2022-12-19T00:41:42.523Z,30.27
2022-12-19T00:44:12.814Z,29.00
2022-12-19T00:46:42.211Z,27.07
2022-12-19T00:49:11.893Z,28.43
2022-12-19T00:51:39.791Z,31.97
2022-12-19T00:54:11.044Z,29.50
2022-12-19T00:56:39.898Z,28.83
2022-12-19T00:59:08.911Z,29.47
2022-12-19T01:01:38.741Z,28.73
2022-12-19T01:07:02.117Z,25.53
2022-12-19T01:09:34.959Z,26.27
2022-12-19T01:12:24.681Z,27.77
2022-12-19T01:14:56.389Z,28.20
2022-12-19T01:17:43.492Z,26.13
2022-12-19T01:20:17.564Z,23.37
2022-12-19T01:22:50.643Z,25.13
2022-12-19T01:25:18.704Z,26.40
2022-12-19T01:27:46.563Z,25.70
2022-12-19T01:30:14.670Z,24.23
2022-12-19T01:32:43.246Z,23.90
2022-12-19T01:35:21.166Z,23.33
2022-12-19T01:37:55.893Z,23.20
2022-12-19T01:40:36.545Z,23.43
2022-12-19T01:43:04.780Z,22.93
2022-12-19T01:45:36.029Z,21.60
2022-12-19T01:48:14.894Z,22.23
2022-12-19T01:50:56.253Z,23.73
2022-12-19T01:53:48.989Z,23.40
2022-12-19T01:56:20.627Z,22.90
2022-12-19T01:58:51.043Z,22.10
2022-12-19T02:01:29.104Z,24.80
2022-12-19T02:03:59.731Z,21.23
2022-12-19T02:06:28.696Z,22.80
2022-12-19T02:08:58.357Z,24.43
2022-12-19T02:11:26.369Z,21.67
2022-12-19T02:13:54.474Z,24.50
2022-12-19T02:16:33.233Z,22.37
2022-12-19T02:19:15.240Z,22.57
2022-12-19T02:21:56.709Z,22.67
2022-12-19T02:24:55.447Z,21.80
2022-12-19T02:27:43.170Z,22.67
2022-12-19T02:30:15.158Z,24.03
2022-12-19T02:33:03.164Z,22.10
2022-12-19T02:35:42.316Z,22.53
2022-12-19T02:38:17.080Z,24.00
2022-12-19T02:40:51.830Z,22.10
2022-12-19T02:43:25.616Z,22.17
2022-12-19T02:45:54.815Z,23.47
2022-12-19T02:48:25.333Z,22.27
2022-12-19T02:50:53.340Z,24.53
2022-12-19T02:53:23.779Z,24.40
2022-12-19T02:56:13.875Z,27.20
2022-12-19T02:59:00.868Z,25.30
2022-12-19T03:01:41.066Z,26.20
2022-12-19T03:04:18.697Z,22.00
2022-12-19T03:06:53.343Z,22.90
2022-12-19T03:09:30.443Z,23.77
2022-12-19T03:12:04.376Z,23.37
2022-12-19T03:14:33.214Z,27.10
2022-12-19T03:17:05.622Z,25.60
2022-12-19T03:19:37.016Z,26.70
2022-12-19T03:22:04.927Z,23.83
2022-12-19T03:24:33.004Z,23.40
2022-12-19T03:27:04.244Z,22.37
2022-12-19T03:29:35.247Z,22.50
2022-12-19T03:32:06.530Z,22.43
2022-12-19T03:34:39.256Z,19.33
2022-12-19T03:37:10.550Z,23.40
2022-12-19T03:39:42.082Z,24.50
2022-12-19T03:42:29.250Z,22.40
2022-12-19T03:45:02.529Z,21.73
2022-12-19T03:47:35.871Z,23.27
2022-12-19T03:50:06.417Z,21.90
2022-12-19T03:52:42.698Z,22.40
2022-12-19T03:55:17.499Z,22.60
2022-12-19T03:57:52.469Z,22.33
2022-12-19T04:00:21.528Z,20.70
2022-12-19T04:02:52.353Z,21.80
2022-12-19T04:05:24.233Z,21.53
2022-12-19T04:07:55.140Z,21.10
2022-12-19T04:10:25.965Z,22.03
2022-12-19T04:12:58.055Z,21.90
2022-12-19T04:15:36.011Z,21.50
2022-12-19T04:18:08.817Z,22.83
2022-12-19T04:20:42.179Z,22.90
2022-12-19T04:23:15.964Z,22.40
2022-12-19T04:25:48.384Z,21.63
2022-12-19T04:28:21.926Z,22.43
2022-12-19T04:30:50.774Z,22.57
2022-12-19T04:33:18.662Z,22.20
2022-12-19T04:35:47.963Z,22.10
2022-12-19T04:38:15.949Z,23.20
2022-12-19T04:40:43.885Z,25.30
2022-12-19T04:43:11.729Z,22.87
2022-12-19T04:45:42.026Z,21.27
2022-12-19T04:48:10.351Z,22.23
2022-12-19T04:50:38.378Z,22.53
2022-12-19T04:53:08.228Z,22.73
2022-12-19T04:55:36.218Z,20.87
2022-12-19T04:58:05.726Z,22.47
2022-12-19T05:00:33.721Z,21.60
2022-12-19T05:03:01.714Z,25.00
2022-12-19T05:05:29.961Z,22.90
2022-12-19T05:07:57.962Z,21.93
2022-12-19T05:10:27.136Z,23.40
2022-12-19T05:12:55.693Z,22.37
2022-12-19T05:15:23.736Z,23.00
2022-12-19T05:17:51.550Z,19.63
2022-12-19T05:20:19.623Z,20.93
2022-12-19T05:22:47.971Z,23.77
2022-12-19T05:25:16.436Z,20.57
2022-12-19T05:27:45.615Z,21.70
2022-12-19T05:30:14.119Z,24.60
2022-12-19T05:32:41.933Z,25.23
2022-12-19T05:35:09.974Z,26.83
2022-12-19T05:37:37.803Z,30.10
2022-12-19T05:40:06.480Z,35.00
2022-12-19T05:42:34.428Z,32.17
2022-12-19T05:45:03.577Z,33.10
2022-12-19T05:47:32.188Z,30.83
2022-12-19T05:49:59.986Z,29.27
2022-12-19T05:52:27.785Z,26.20
2022-12-19T05:54:55.797Z,25.67
2022-12-19T05:57:23.688Z,24.27
2022-12-19T05:59:51.609Z,25.00
2022-12-19T06:02:21.426Z,20.70
2022-12-19T06:04:49.357Z,20.23
2022-12-19T06:07:20.894Z,18.10
2022-12-19T06:09:49.012Z,18.20
2022-12-19T06:12:16.803Z,18.57
2022-12-19T06:14:44.669Z,17.37
2022-12-19T06:17:12.540Z,18.27
2022-12-19T06:19:41.751Z,18.73
2022-12-19T06:22:09.572Z,17.97
2022-12-19T06:24:37.507Z,19.47
2022-12-19T06:27:05.333Z,18.60
2022-12-19T06:29:33.685Z,16.87
2022-12-19T06:32:01.510Z,18.13
2022-12-19T06:35:02.381Z,18.90
2022-12-19T06:37:18.548Z,18.20
2022-12-19T06:39:48.407Z,16.90
2022-12-19T06:42:24.541Z,19.93
2022-12-19T06:44:56.491Z,16.80
2022-12-19T06:47:25.166Z,19.13
2022-12-19T06:49:52.964Z,18.77
2022-12-19T06:52:22.303Z,17.07
2022-12-19T06:54:50.157Z,17.83
2022-12-19T06:57:17.917Z,16.57
2022-12-19T06:59:45.764Z,17.17
2022-12-19T07:02:25.196Z,17.80
2022-12-19T07:04:58.222Z,17.67
2022-12-19T07:07:28.504Z,18.07
2022-12-19T07:09:56.365Z,16.43
2022-12-19T07:12:24.160Z,17.97
2022-12-19T07:14:53.697Z,17.40
2022-12-19T07:17:23.623Z,17.63
2022-12-19T07:19:51.612Z,16.20
2022-12-19T07:22:19.696Z,17.20
2022-12-19T07:24:49.271Z,18.83
2022-12-19T07:27:17.223Z,18.33
2022-12-19T07:29:45.001Z,16.70
2022-12-19T07:32:12.761Z,17.07
2022-12-19T07:34:40.747Z,17.67
2022-12-19T07:37:08.526Z,16.87
2022-12-19T07:39:36.410Z,17.63
2022-12-19T07:42:05.712Z,17.47
2022-12-19T07:44:39.780Z,17.03
2022-12-19T07:47:07.878Z,17.90
2022-12-19T07:49:35.716Z,16.87
2022-12-19T07:52:04.014Z,14.90
2022-12-19T07:54:31.829Z,16.00
2022-12-19T07:56:59.585Z,16.13
2022-12-19T07:59:32.282Z,16.13
2022-12-19T08:02:03.757Z,15.03
2022-12-19T08:04:31.705Z,15.80
2022-12-19T08:06:59.555Z,15.50
2022-12-19T08:09:27.832Z,15.90
2022-12-19T08:11:55.819Z,14.63
2022-12-19T08:14:23.634Z,16.53
2022-12-19T08:19:40.820Z,15.93
2022-12-19T08:22:08.673Z,14.40
2022-12-19T08:24:36.752Z,16.70
2022-12-19T08:27:04.757Z,17.53
2022-12-19T08:29:32.596Z,15.33
2022-12-19T08:32:01.745Z,15.60
2022-12-19T08:34:29.611Z,15.00
2022-12-19T08:36:57.787Z,14.10
2022-12-19T08:39:25.785Z,14.10
2022-12-19T08:41:53.577Z,15.47
2022-12-19T08:44:21.579Z,14.17
2022-12-19T08:46:50.452Z,14.90
2022-12-19T08:49:20.500Z,15.30
2022-12-19T08:51:48.433Z,14.90
2022-12-19T08:54:16.587Z,15.93
2022-12-19T08:56:46.509Z,15.13
2022-12-19T08:59:18.539Z,11.30
2022-12-19T09:01:58.848Z,15.70
2022-12-19T09:05:31.347Z,15.40
2022-12-19T09:07:16.534Z,15.97
2022-12-19T09:09:44.804Z,16.70
2022-12-19T09:12:13.610Z,15.00
2022-12-19T09:14:41.413Z,15.10
2022-12-19T09:17:09.644Z,14.50
2022-12-19T09:19:39.097Z,14.43
2022-12-19T09:22:09.085Z,14.00
2022-12-19T09:24:36.950Z,16.57
2022-12-19T09:27:05.005Z,16.10
2022-12-19T09:29:35.536Z,17.07
2022-12-19T09:32:03.711Z,17.47
2022-12-19T09:34:38.177Z,17.93
2022-12-19T09:37:09.153Z,17.90
2022-12-19T09:39:43.255Z,15.80
2022-12-19T09:42:41.245Z,16.50
2022-12-19T09:45:33.076Z,16.27
2022-12-19T09:48:02.286Z,15.20
2022-12-19T09:50:49.036Z,14.53
2022-12-19T09:53:22.322Z,15.63
2022-12-19T09:55:54.092Z,16.10
2022-12-19T09:58:36.729Z,15.07
2022-12-19T10:01:09.302Z,15.07
2022-12-19T10:03:40.772Z,17.40
2022-12-19T10:07:10.430Z,15.83
2022-12-19T10:10:09.791Z,16.23
2022-12-19T10:12:42.764Z,16.63
2022-12-19T10:15:19.689Z,17.90
2022-12-19T10:18:05.487Z,16.27
2022-12-19T10:20:36.383Z,16.83
2022-12-19T10:23:17.925Z,18.10
2022-12-19T10:25:58.764Z,16.30
2022-12-19T10:28:47.718Z,16.27
2022-12-19T10:31:22.364Z,18.53
2022-12-19T10:33:58.453Z,18.03
2022-12-19T10:36:48.735Z,15.80
2022-12-19T10:39:25.056Z,17.13
2022-12-19T10:41:57.922Z,16.97
2022-12-19T10:44:30.067Z,17.03
2022-12-19T10:46:57.989Z,18.10
2022-12-19T10:49:28.052Z,17.47
2022-12-19T10:52:01.172Z,17.03
2022-12-19T10:54:39.470Z,18.07
2022-12-19T10:57:25.682Z,16.83
2022-12-19T10:59:58.519Z,18.07
2022-12-19T11:02:41.088Z,18.80
2022-12-19T11:05:24.330Z,18.63
2022-12-19T11:08:03.618Z,18.73
2022-12-19T11:12:09.373Z,17.83
2022-12-19T11:18:45.329Z,19.10
2022-12-19T11:20:53.063Z,18.30
2022-12-19T11:29:30.011Z,18.67
2022-12-19T11:29:35.108Z,18.60
2022-12-19T11:30:08.858Z,18.30
2022-12-19T11:30:43.543Z,18.33
2022-12-19T11:32:12.176Z,19.50
2022-12-19T11:33:56.251Z,18.07
2022-12-19T11:36:32.473Z,18.77
2022-12-19T11:39:00.913Z,19.43
2022-12-19T11:41:34.755Z,19.33
2022-12-19T11:44:08.499Z,17.73
2022-12-19T11:46:44.589Z,17.10
2022-12-19T11:49:23.660Z,17.60
2022-12-19T11:51:57.442Z,17.20
2022-12-19T11:54:30.813Z,18.13
2022-12-19T11:56:58.740Z,18.77
2022-12-19T11:59:32.366Z,17.33
2022-12-19T12:02:14.019Z,19.77
2022-12-19T12:04:55.852Z,17.87
2022-12-19T12:08:16.226Z,17.40
2022-12-19T12:16:23.526Z,18.47
2022-12-19T12:22:53.838Z,18.63
2022-12-19T12:24:46.819Z,16.00
2022-12-19T12:31:21.496Z,17.37
2022-12-19T12:31:23.790Z,16.83
2022-12-19T12:31:46.051Z,17.67
2022-12-19T12:31:47.726Z,15.03
2022-12-19T12:35:36.472Z,16.93
2022-12-19T12:35:46.392Z,16.07
2022-12-19T12:40:46.663Z,16.27
2022-12-19T12:43:32.243Z,17.53
2022-12-19T12:46:00.383Z,15.47
2022-12-19T12:48:34.153Z,15.87
2022-12-19T12:51:04.446Z,16.80
2022-12-19T12:53:36.228Z,16.47
2022-12-19T12:56:07.485Z,17.30
2022-12-19T12:59:04.613Z,16.77
2022-12-19T13:01:38.779Z,17.27
2022-12-19T13:04:19.141Z,16.23
2022-12-19T13:09:41.850Z,17.23
2022-12-19T13:12:38.725Z,15.70
2022-12-19T13:15:34.305Z,17.10
2022-12-19T13:18:10.672Z,15.90
2022-12-19T13:20:45.517Z,15.53
2022-12-19T13:23:33.404Z,15.47
2022-12-19T13:26:02.621Z,15.33
2022-12-19T13:28:39.651Z,16.70
2022-12-19T13:31:23.136Z,15.87
2022-12-19T13:34:20.160Z,16.20
2022-12-19T13:39:49.256Z,18.07
2022-12-19T13:39:58.420Z,15.57
2022-12-19T13:43:08.214Z,17.27
2022-12-19T13:45:42.252Z,16.23
2022-12-19T13:48:16.564Z,16.70
2022-12-19T13:50:47.661Z,16.53
2022-12-19T13:53:18.301Z,16.13
2022-12-19T13:55:46.183Z,15.00
2022-12-19T13:58:29.258Z,14.50
2022-12-19T14:01:01.904Z,15.10
2022-12-19T14:03:36.089Z,18.00
2022-12-19T14:06:16.058Z,14.83
2022-12-19T14:09:20.259Z,16.27
2022-12-19T14:13:46.248Z,18.50
2022-12-19T14:15:12.822Z,15.80
2022-12-19T14:17:41.832Z,15.97
2022-12-19T14:22:01.774Z,15.77
2022-12-19T14:23:07.592Z,14.73
2022-12-19T14:28:15.654Z,15.50
2022-12-19T14:28:50.688Z,15.57
2022-12-19T14:31:26.382Z,14.93
2022-12-19T14:34:19.104Z,20.00
2022-12-19T14:36:50.635Z,14.97
2022-12-19T14:39:28.863Z,15.93
2022-12-19T14:43:55.438Z,15.33
2022-12-19T14:52:25.320Z,15.30
2022-12-19T14:52:34.299Z,14.40
2022-12-19T14:54:31.358Z,16.87
2022-12-19T14:57:25.487Z,16.90
2022-12-19T15:01:08.212Z,16.33
2022-12-19T15:03:19.781Z,15.00
2022-12-19T15:05:49.482Z,15.20
2022-12-19T15:09:50.759Z,16.70
2022-12-19T15:11:53.680Z,13.63
2022-12-19T15:14:51.285Z,14.33
2022-12-19T15:17:24.367Z,16.43
2022-12-19T15:19:52.794Z,14.23
2022-12-19T15:22:21.982Z,13.83
2022-12-19T15:24:49.787Z,14.43
2022-12-19T15:27:18.534Z,13.53
2022-12-19T15:29:46.606Z,16.63
2022-12-19T15:32:15.901Z,14.93
2022-12-19T15:34:51.015Z,15.37
2022-12-19T15:37:19.838Z,13.23
2022-12-19T15:39:49.218Z,16.07
2022-12-19T15:42:21.509Z,14.77
2022-12-19T15:44:51.142Z,16.93
2022-12-19T15:47:23.110Z,16.23
2022-12-19T15:49:51.057Z,16.17
2022-12-19T15:52:21.649Z,13.93
2022-12-19T15:54:51.375Z,14.50
2022-12-19T15:57:27.203Z,15.90
2022-12-19T15:59:56.616Z,15.70
2022-12-19T16:02:37.524Z,15.27
2022-12-19T16:05:15.538Z,15.10
2022-12-19T16:07:43.783Z,14.83
2022-12-19T16:10:13.492Z,16.67
2022-12-19T16:12:43.969Z,15.50
2022-12-19T16:15:17.379Z,16.37
2022-12-19T16:17:45.245Z,18.70
2022-12-19T16:20:18.768Z,19.53
2022-12-19T16:22:46.938Z,20.03
2022-12-19T16:25:17.255Z,20.53
2022-12-19T16:27:47.686Z,19.50
2022-12-19T16:30:19.537Z,19.90
2022-12-19T16:32:48.259Z,17.97
2022-12-19T16:35:34.299Z,22.40
2022-12-19T16:38:06.400Z,17.73
2022-12-19T16:40:36.052Z,18.80
2022-12-19T16:43:06.690Z,17.73
2022-12-19T16:45:35.876Z,18.13
2022-12-19T16:48:03.871Z,20.27
2022-12-19T16:50:32.836Z,21.20
2022-12-19T16:53:00.591Z,27.80
2022-12-19T16:55:28.585Z,22.17
2022-12-19T16:57:59.018Z,21.83
2022-12-19T17:00:27.573Z,21.50
2022-12-19T17:02:58.067Z,21.17
2022-12-19T17:05:28.109Z,21.53
2022-12-19T17:07:56.762Z,20.33
2022-12-19T17:10:29.791Z,21.87
2022-12-19T17:13:00.248Z,22.73
2022-12-19T17:15:31.264Z,20.67
2022-12-19T17:18:01.752Z,20.30
2022-12-19T17:20:39.538Z,20.87
2022-12-19T17:23:14.364Z,20.30
2022-12-19T17:25:42.391Z,20.30
2022-12-19T17:28:12.598Z,18.90
2022-12-19T17:30:41.922Z,22.00
2022-12-19T17:33:15.527Z,19.70
2022-12-19T17:35:43.851Z,19.03
2022-12-19T17:38:14.309Z,19.17
2022-12-19T17:40:42.822Z,19.33
2022-12-19T17:43:13.200Z,19.33
2022-12-19T17:45:42.365Z,20.37
2022-12-19T17:48:21.957Z,19.57
2022-12-19T17:50:49.858Z,19.40
2022-12-19T17:53:17.652Z,19.50
2022-12-19T17:55:45.515Z,19.40
2022-12-19T17:58:14.651Z,20.63
2022-12-19T18:00:43.577Z,18.73
2022-12-19T18:03:21.236Z,18.57
2022-12-19T18:05:50.670Z,17.47
2022-12-19T18:08:25.414Z,15.20
2022-12-19T18:10:56.482Z,15.90
2022-12-19T18:13:27.287Z,14.60
2022-12-19T18:15:58.272Z,17.07
2022-12-19T18:18:29.732Z,14.83
2022-12-19T18:20:58.299Z,14.53
2022-12-19T18:23:26.202Z,14.40
2022-12-19T18:25:59.467Z,16.30
2022-12-19T18:28:30.865Z,16.00
2022-12-19T18:31:01.994Z,14.87
2022-12-19T18:33:37.888Z,16.87
2022-12-19T18:36:07.570Z,15.80
2022-12-19T18:38:35.448Z,15.20
2022-12-19T18:41:03.676Z,15.23
2022-12-19T18:43:33.630Z,15.00
2022-12-19T18:46:01.558Z,14.77
2022-12-19T18:48:32.923Z,15.87
2022-12-19T18:51:01.877Z,16.03
2022-12-19T18:53:35.259Z,17.93
2022-12-19T18:56:05.979Z,16.13
2022-12-19T18:58:35.560Z,15.60
2022-12-19T19:01:04.748Z,16.50
2022-12-19T19:03:34.707Z,17.07
2022-12-19T19:06:03.665Z,16.13
2022-12-19T19:08:34.184Z,16.43
2022-12-19T19:11:31.920Z,17.97
2022-12-19T19:14:01.182Z,14.63
2022-12-19T19:16:29.087Z,15.60
2022-12-19T19:18:59.544Z,16.70
2022-12-19T19:21:33.361Z,16.80
2022-12-19T19:24:05.866Z,16.33
2022-12-19T19:26:33.963Z,16.00
2022-12-19T19:29:03.882Z,15.60
2022-12-19T19:31:35.233Z,16.60
2022-12-19T19:34:09.888Z,16.23
2022-12-19T19:36:41.322Z,15.70
2022-12-19T19:39:10.673Z,15.70
2022-12-19T19:41:38.609Z,16.70
2022-12-19T19:44:07.758Z,16.00
2022-12-19T19:46:37.007Z,15.97
2022-12-19T19:49:05.035Z,17.03
2022-12-19T19:51:32.893Z,15.60
2022-12-19T19:54:00.883Z,14.80
2022-12-19T19:56:28.871Z,16.10
2022-12-19T19:59:00.269Z,15.90
2022-12-19T20:01:30.311Z,17.80
2022-12-19T20:03:58.493Z,17.37
2022-12-19T20:06:30.036Z,15.60
2022-12-19T20:08:57.938Z,17.37
2022-12-19T20:11:25.956Z,15.70
2022-12-19T20:13:53.821Z,17.70
2022-12-19T20:16:21.751Z,16.03
2022-12-19T20:18:53.109Z,17.67
2022-12-19T20:21:22.409Z,18.70
2022-12-19T20:23:50.327Z,17.20
2022-12-19T20:26:18.913Z,17.00
2022-12-19T20:28:50.102Z,16.93
2022-12-19T20:31:19.427Z,18.43
2022-12-19T20:33:48.591Z,16.23
2022-12-19T20:36:18.516Z,16.23
2022-12-19T20:38:47.541Z,16.37
2022-12-19T20:41:15.728Z,17.83
2022-12-19T20:43:43.631Z,17.70
2022-12-19T20:46:14.046Z,18.03
2022-12-19T20:48:42.360Z,16.33
2022-12-19T20:51:10.938Z,17.47
2022-12-19T20:53:41.637Z,15.77
2022-12-19T20:56:12.085Z,18.33
2022-12-19T20:58:40.037Z,18.30
2022-12-19T21:01:10.266Z,19.23
2022-12-19T21:03:38.966Z,20.47
2022-12-19T21:06:08.235Z,19.00
2022-12-19T21:08:36.909Z,17.70
2022-12-19T21:11:07.730Z,18.50
2022-12-19T21:13:35.999Z,17.33
2022-12-19T21:16:08.518Z,17.50
2022-12-19T21:18:36.902Z,17.63
2022-12-19T21:21:05.143Z,19.00
2022-12-19T21:23:33.406Z,18.73
2022-12-19T21:26:04.180Z,18.40
2022-12-19T21:28:33.856Z,19.00
2022-12-19T21:31:04.588Z,20.00
2022-12-19T21:33:32.603Z,19.57
2022-12-19T21:36:06.589Z,18.17
2022-12-19T21:38:34.535Z,17.90
2022-12-19T21:41:03.817Z,20.57
2022-12-19T21:43:33.517Z,18.43
2022-12-19T21:46:09.993Z,17.93
2022-12-19T21:48:39.406Z,19.77
2022-12-19T21:51:07.564Z,36.87
2022-12-19T21:53:36.537Z,24.67
2022-12-19T21:56:06.330Z,24.07
2022-12-19T21:58:35.706Z,36.03
2022-12-19T22:01:12.685Z,28.27
2022-12-19T22:03:41.441Z,27.17
2022-12-19T22:06:14.495Z,24.20
2022-12-19T22:08:42.563Z,21.63
2022-12-19T22:11:14.230Z,20.20
2022-12-19T22:13:43.422Z,19.57
2022-12-19T22:16:12.431Z,19.90
2022-12-19T22:18:40.944Z,21.10
2022-12-19T22:21:10.029Z,20.30
2022-12-19T22:23:38.283Z,20.60
2022-12-19T22:26:08.182Z,19.93
2022-12-19T22:28:38.397Z,19.93
2022-12-19T22:31:17.056Z,19.73
2022-12-19T22:33:45.786Z,20.43
2022-12-19T22:36:15.625Z,19.17
2022-12-19T22:38:46.448Z,19.90
2022-12-19T22:41:15.749Z,20.30
2022-12-19T22:43:43.882Z,18.87
2022-12-19T22:46:14.458Z,18.50
2022-12-19T22:48:43.145Z,18.30
2022-12-19T22:51:11.428Z,18.60
2022-12-19T22:53:40.121Z,19.27
2022-12-19T22:56:11.564Z,18.60
2022-12-19T22:58:42.037Z,17.50
2022-12-19T23:01:16.449Z,18.10
2022-12-19T23:03:45.017Z,18.63
2022-12-19T23:06:13.366Z,19.90
2022-12-19T23:08:41.571Z,19.67
2022-12-19T23:11:17.033Z,17.97
2022-12-19T23:13:46.239Z,19.27
2022-12-19T23:16:15.719Z,18.87
2022-12-19T23:18:44.112Z,19.73
2022-12-19T23:21:14.279Z,18.50
2022-12-19T23:23:43.538Z,19.83
2022-12-19T23:26:15.818Z,19.20
2022-12-19T23:28:44.948Z,18.03
2022-12-19T23:31:15.300Z,18.00
2022-12-19T23:33:43.165Z,18.03
2022-12-19T23:36:11.200Z,19.40
2022-12-19T23:38:39.030Z,22.90
2022-12-19T23:41:09.300Z,19.47
2022-12-19T23:43:38.125Z,18.97
2022-12-19T23:46:06.937Z,17.63
2022-12-19T23:48:36.446Z,19.43
2022-12-19T23:51:06.265Z,19.47
2022-12-19T23:53:34.504Z,18.67
2022-12-19T23:56:05.612Z,17.77
2022-12-19T23:58:34.201Z,18.33
